aviador You're here:

KOVS Decoded Metar

BOSCOBEL in WI, USA
Report Time2017-07-22 23:53:00
UTC Time2017-07-23 00:53:47
Flight Rules vfr VFR
WindCalm
Visibility9999 m
Phenomena:N/A
Clouds:N/A
Expected CloudBase > 2,800 ft AGL from Temp-Dew spread
CeilingNone
Temp29°C (ISA +15)
Dew Point22°C (66% RH)
Heat Index32.0°C
QNH1009 hPa
Density Alt2,907 ft
Elevation663 ft
Report Wrong Elevation
Raw Report
KOVS 222353Z AUTO 00000KT 10SM CLR 29/22 A2981 RMK AO2 SLP092
T02890217 10300 20267 53003=

Extra information for KOVS:More info

Metar Taf Metar & Taf Last 4 Metars F.Rules Stats Wind Profile Meteogram Temp Stats Airport Information Weather charts Add Link Nearby VenuesMetar ALERT Operation Metar Decoded Social comments

AIRNAV info for KOVS